PWSweather.com
Personal Weather Stations
Station Observations
WATERF01
WaterfordIE

WaterfordIE

Lat: 52.2412507, Lon: -7.1414691

Elevation: 65

Station Type: Davis Vantage Vue

Latest ConditionsUpdated 5:20:02 PM GMT Saturday, Oct 21, 2017
Currently Today's Max Today's Min Today's Average
Temperature 52.7°F11.5°C 58.2°F14.6°C 52.7°F11.5°C 54.9°F12.7°C
Dew Point 46.0°F7.8°C 51.4°F10.8°C 46.0°F7.8°C 49.6°F9.8°C
Winds 13.8 mph WNW22.2 kmh WNW 24.2 mph SSW38.9 kmh SSW - 14.4 mph 23.2 kmh
Wind Gusts 23.0 mph37.0 kmh 34.5 mph55.5 kmh - -
Humidity 78% 87% 74% 82%
Pressure 29.58 in1001.7 mb 29.58 in1001.7 mb 29.04 in983.4 mb -
Precipitation - 0.06 in1.5 mm - -
Hour Temp Dew Point Humidity Winds Wind Gusts Pressure Precip Precip Rate Daily Precip Total
05:20 PM 52.7°F11.5°C 46.0°F7.8°C 78% 13.8 mph WNW22.2 kmh WNW 23.0 mph37.0 kmh 29.58 in1001.7 mb - 0.00 in0.0 mm 0.06 in1.5 mm
05:10 PM 52.7°F11.5°C 46.0°F7.8°C 78% 11.5 mph WNW18.5 kmh WNW 16.1 mph25.9 kmh 29.57 in1001.4 mb - 0.00 in0.0 mm 0.06 in1.5 mm
05:00 PM 53.0°F11.7°C 46.0°F7.8°C 77% 13.8 mph NW22.2 kmh NW 27.6 mph44.4 kmh 29.56 in1001.0 mb - 0.00 in0.0 mm 0.06 in1.5 mm
04:50 PM 53.5°F11.9°C 46.5°F8.1°C 77% 11.5 mph WNW18.5 kmh WNW 19.6 mph31.5 kmh 29.55 in1000.7 mb - 0.00 in0.0 mm 0.06 in1.5 mm
04:40 PM 53.6°F12.0°C 46.6°F8.1°C 77% 12.7 mph WNW20.4 kmh WNW 20.7 mph33.3 kmh 29.55 in1000.7 mb - 0.00 in0.0 mm 0.06 in1.5 mm
04:30 PM 53.5°F11.9°C 46.5°F8.1°C 77% 12.7 mph WNW20.4 kmh WNW 19.6 mph31.5 kmh 29.55 in1000.7 mb - 0.00 in0.0 mm 0.06 in1.5 mm
04:20 PM 53.4°F11.9°C 46.7°F8.2°C 78% 11.5 mph WNW18.5 kmh WNW 21.9 mph35.2 kmh 29.54 in1000.3 mb - 0.00 in0.0 mm 0.06 in1.5 mm
04:10 PM 53.8°F12.1°C 47.1°F8.4°C 78% 13.8 mph WNW22.2 kmh WNW 21.9 mph35.2 kmh 29.53 in1000.0 mb - 0.00 in0.0 mm 0.06 in1.5 mm
04:00 PM 54.1°F12.3°C 46.7°F8.2°C 76% 11.5 mph WNW18.5 kmh WNW 18.4 mph29.6 kmh 29.52 in999.7 mb - 0.00 in0.0 mm 0.06 in1.5 mm
03:50 PM 54.2°F12.3°C 46.5°F8.1°C 75% 13.8 mph WNW22.2 kmh WNW 21.9 mph35.2 kmh 29.51 in999.3 mb - 0.00 in0.0 mm 0.06 in1.5 mm
03:40 PM 54.6°F12.6°C 46.9°F8.3°C 75% 16.1 mph WNW25.9 kmh WNW 25.3 mph40.7 kmh 29.50 in999.0 mb - 0.00 in0.0 mm 0.06 in1.5 mm
03:30 PM 55.2°F12.9°C 47.4°F8.6°C 75% 10.4 mph WNW16.7 kmh WNW 21.9 mph35.2 kmh 29.49 in998.6 mb - 0.00 in0.0 mm 0.06 in1.5 mm
03:20 PM 55.5°F13.1°C 47.7°F8.7°C 75% 15.0 mph NW24.1 kmh NW 21.9 mph35.2 kmh 29.48 in998.3 mb - 0.00 in0.0 mm 0.06 in1.5 mm
03:10 PM 55.6°F13.1°C 47.8°F8.8°C 75% 16.1 mph NW25.9 kmh NW 27.6 mph44.4 kmh 29.47 in998.0 mb - 0.00 in0.0 mm 0.06 in1.5 mm
03:00 PM 55.8°F13.2°C 47.6°F8.7°C 74% 17.3 mph WNW27.8 kmh WNW 32.2 mph51.8 kmh 29.46 in997.6 mb - 0.00 in0.0 mm 0.06 in1.5 mm
02:50 PM 55.8°F13.2°C 48.0°F8.9°C 75% 16.1 mph NW25.9 kmh NW 21.9 mph35.2 kmh 29.46 in997.6 mb - 0.00 in0.0 mm 0.06 in1.5 mm
02:40 PM 55.9°F13.3°C 48.1°F8.9°C 75% 19.6 mph NW31.5 kmh NW 29.9 mph48.1 kmh 29.45 in997.3 mb - 0.00 in0.0 mm 0.06 in1.5 mm
02:30 PM 56.1°F13.4°C 48.3°F9.1°C 75% 17.3 mph WNW27.8 kmh WNW 27.6 mph44.4 kmh 29.43 in996.6 mb - 0.00 in0.0 mm 0.06 in1.5 mm
02:20 PM 56.4°F13.6°C 49.9°F9.9°C 79% 17.3 mph NW27.8 kmh NW 27.6 mph44.4 kmh 29.41 in995.9 mb - 0.00 in0.0 mm 0.06 in1.5 mm
02:10 PM 56.9°F13.8°C 50.1°F10.1°C 78% 13.8 mph NW22.2 kmh NW 25.3 mph40.7 kmh 29.39 in995.3 mb - 0.00 in0.0 mm 0.06 in1.5 mm
02:00 PM 57.3°F14.1°C 50.5°F10.3°C 78% 17.3 mph NW27.8 kmh NW 32.2 mph51.8 kmh 29.38 in994.9 mb - 0.00 in0.0 mm 0.06 in1.5 mm
01:50 PM 58.2°F14.6°C 51.0°F10.6°C 77% 9.2 mph WNW14.8 kmh WNW 16.1 mph25.9 kmh 29.37 in994.6 mb - 0.00 in0.0 mm 0.06 in1.5 mm
01:40 PM 58.1°F14.5°C 50.9°F10.5°C 77% 13.8 mph NW22.2 kmh NW 23.0 mph37.0 kmh 29.36 in994.2 mb - 0.00 in0.0 mm 0.06 in1.5 mm
01:30 PM 57.8°F14.3°C 50.6°F10.3°C 77% 10.4 mph WNW16.7 kmh WNW 19.6 mph31.5 kmh 29.35 in993.9 mb - 0.00 in0.0 mm 0.06 in1.5 mm
01:20 PM 58.0°F14.4°C 50.8°F10.4°C 77% 17.3 mph WNW27.8 kmh WNW 27.6 mph44.4 kmh 29.34 in993.6 mb - 0.00 in0.0 mm 0.06 in1.5 mm
01:10 PM 58.0°F14.4°C 51.2°F10.7°C 78% 15.0 mph WNW24.1 kmh WNW 26.5 mph42.6 kmh 29.32 in992.9 mb - 0.00 in0.0 mm 0.06 in1.5 mm
01:00 PM 58.0°F14.4°C 50.8°F10.4°C 77% 9.2 mph WNW14.8 kmh WNW 15.0 mph24.1 kmh 29.32 in992.9 mb - 0.00 in0.0 mm 0.06 in1.5 mm
12:50 PM 58.1°F14.5°C 50.9°F10.5°C 77% 12.7 mph WNW20.4 kmh WNW 19.6 mph31.5 kmh 29.31 in992.6 mb - 0.00 in0.0 mm 0.06 in1.5 mm
12:40 PM 57.8°F14.3°C 51.0°F10.6°C 78% 5.8 mph W9.3 kmh W 9.2 mph14.8 kmh 29.30 in992.2 mb - 0.00 in0.0 mm 0.06 in1.5 mm
12:30 PM 57.7°F14.3°C 50.9°F10.5°C 78% 10.4 mph WNW16.7 kmh WNW 15.0 mph24.1 kmh 29.29 in991.9 mb - 0.00 in0.0 mm 0.06 in1.5 mm
12:20 PM 57.5°F14.2°C 51.0°F10.6°C 79% 10.4 mph WNW16.7 kmh WNW 18.4 mph29.6 kmh 29.29 in991.9 mb - 0.00 in0.0 mm 0.06 in1.5 mm
12:10 PM 57.3°F14.1°C 51.2°F10.7°C 80% 8.1 mph WNW13.0 kmh WNW 12.7 mph20.4 kmh 29.28 in991.5 mb - 0.00 in0.0 mm 0.06 in1.5 mm
12:00 PM 57.1°F13.9°C 51.3°F10.7°C 81% 11.5 mph WNW18.5 kmh WNW 15.0 mph24.1 kmh 29.27 in991.2 mb - 0.00 in0.0 mm 0.06 in1.5 mm
11:50 AM 57.2°F14.0°C 51.1°F10.6°C 80% 10.4 mph WNW16.7 kmh WNW 16.1 mph25.9 kmh 29.26 in990.9 mb - 0.00 in0.0 mm 0.06 in1.5 mm
11:40 AM 57.2°F14.0°C 50.7°F10.4°C 79% 11.5 mph WNW18.5 kmh WNW 20.7 mph33.3 kmh 29.25 in990.5 mb - 0.00 in0.0 mm 0.06 in1.5 mm
11:30 AM 57.0°F13.9°C 50.9°F10.5°C 80% 9.2 mph WNW14.8 kmh WNW 19.6 mph31.5 kmh 29.25 in990.5 mb - 0.00 in0.0 mm 0.06 in1.5 mm
11:20 AM 56.4°F13.6°C 51.3°F10.7°C 83% 8.1 mph W13.0 kmh W 13.8 mph22.2 kmh 29.24 in990.2 mb - 0.00 in0.0 mm 0.06 in1.5 mm
11:10 AM 56.1°F13.4°C 51.3°F10.7°C 84% 10.4 mph WNW16.7 kmh WNW 19.6 mph31.5 kmh 29.23 in989.8 mb - 0.00 in0.0 mm 0.06 in1.5 mm
11:00 AM 56.5°F13.6°C 51.4°F10.8°C 83% 10.4 mph W16.7 kmh W 21.9 mph35.2 kmh 29.22 in989.5 mb - 0.00 in0.0 mm 0.06 in1.5 mm
10:50 AM 55.5°F13.1°C 51.0°F10.6°C 85% 9.2 mph W14.8 kmh W 16.1 mph25.9 kmh 29.21 in989.2 mb - 0.00 in0.0 mm 0.06 in1.5 mm
10:40 AM 54.7°F12.6°C 51.0°F10.6°C 87% 5.8 mph W9.3 kmh W 9.2 mph14.8 kmh 29.20 in988.8 mb - 0.00 in0.0 mm 0.06 in1.5 mm
10:30 AM 54.3°F12.4°C 50.5°F10.3°C 87% 6.9 mph W11.1 kmh W 11.5 mph18.5 kmh 29.18 in988.1 mb - 0.00 in0.0 mm 0.06 in1.5 mm
10:20 AM 54.1°F12.3°C 50.3°F10.2°C 87% 9.2 mph WNW14.8 kmh WNW 13.8 mph22.2 kmh 29.17 in987.8 mb - 0.01 in0.3 mm 0.06 in1.5 mm
10:10 AM 53.9°F12.2°C 50.1°F10.1°C 87% 9.2 mph WNW14.8 kmh WNW 13.8 mph22.2 kmh 29.16 in987.5 mb - 0.00 in0.0 mm 0.05 in1.3 mm
10:00 AM 53.7°F12.1°C 49.9°F9.9°C 87% 11.5 mph W18.5 kmh W 19.6 mph31.5 kmh 29.14 in986.8 mb - 0.01 in0.3 mm 0.05 in1.3 mm
09:50 AM 53.7°F12.1°C 49.9°F9.9°C 87% 13.8 mph WNW22.2 kmh WNW 23.0 mph37.0 kmh 29.13 in986.5 mb - 0.00 in0.0 mm 0.04 in1.0 mm
09:40 AM 53.7°F12.1°C 49.9°F9.9°C 87% 17.3 mph W27.8 kmh W 26.5 mph42.6 kmh 29.11 in985.8 mb - 0.00 in0.0 mm 0.04 in1.0 mm
09:30 AM 53.5°F11.9°C 49.7°F9.8°C 87% 12.7 mph WNW20.4 kmh WNW 21.9 mph35.2 kmh 29.11 in985.8 mb - 0.00 in0.0 mm 0.04 in1.0 mm
09:20 AM 53.2°F11.8°C 49.4°F9.7°C 87% 9.2 mph W14.8 kmh W 19.6 mph31.5 kmh 29.10 in985.4 mb - 0.00 in0.0 mm 0.04 in1.0 mm
09:10 AM 53.1°F11.7°C 49.3°F9.6°C 87% 11.5 mph WNW18.5 kmh WNW 21.9 mph35.2 kmh 29.09 in985.1 mb - 0.01 in0.3 mm 0.04 in1.0 mm
09:00 AM 53.3°F11.8°C 49.2°F9.6°C 86% 17.3 mph WSW27.8 kmh WSW 23.0 mph37.0 kmh 29.08 in984.8 mb - 0.00 in0.0 mm 0.03 in0.8 mm
08:50 AM 53.6°F12.0°C 49.2°F9.6°C 85% 12.7 mph W20.4 kmh W 23.0 mph37.0 kmh 29.07 in984.4 mb - 0.00 in0.0 mm 0.03 in0.8 mm
08:40 AM 53.7°F12.1°C 49.0°F9.4°C 84% 20.7 mph W33.3 kmh W 29.9 mph48.1 kmh 29.06 in984.1 mb - 0.00 in0.0 mm 0.03 in0.8 mm
08:30 AM 53.8°F12.1°C 49.1°F9.5°C 84% 18.4 mph W29.6 kmh W 26.5 mph42.6 kmh 29.06 in984.1 mb - 0.00 in0.0 mm 0.03 in0.8 mm
08:20 AM 53.8°F12.1°C 49.1°F9.5°C 84% 15.0 mph WSW24.1 kmh WSW 25.3 mph40.7 kmh 29.05 in983.7 mb - 0.00 in0.0 mm 0.03 in0.8 mm
08:10 AM 53.9°F12.2°C 49.2°F9.6°C 84% 20.7 mph W33.3 kmh W 29.9 mph48.1 kmh 29.05 in983.7 mb - 0.00 in0.0 mm 0.03 in0.8 mm
08:00 AM 54.0°F12.2°C 49.3°F9.6°C 84% 17.3 mph NW27.8 kmh NW 27.6 mph44.4 kmh 29.04 in983.4 mb - 0.00 in0.0 mm 0.03 in0.8 mm
07:50 AM 53.9°F12.2°C 49.2°F9.6°C 84% 19.6 mph W31.5 kmh W 29.9 mph48.1 kmh 29.05 in983.7 mb - 0.00 in0.0 mm 0.03 in0.8 mm
07:40 AM 53.8°F12.1°C 49.4°F9.7°C 85% 15.0 mph W24.1 kmh W 25.3 mph40.7 kmh 29.05 in983.7 mb - 0.00 in0.0 mm 0.03 in0.8 mm
07:30 AM 53.7°F12.1°C 49.3°F9.6°C 85% 16.1 mph WNW25.9 kmh WNW 23.0 mph37.0 kmh 29.05 in983.7 mb - 0.00 in0.0 mm 0.03 in0.8 mm
07:20 AM 53.6°F12.0°C 49.2°F9.6°C 85% 11.5 mph WNW18.5 kmh WNW 19.6 mph31.5 kmh 29.05 in983.7 mb - 0.00 in0.0 mm 0.03 in0.8 mm
07:10 AM 53.4°F11.9°C 49.0°F9.4°C 85% 16.1 mph W25.9 kmh W 25.3 mph40.7 kmh 29.06 in984.1 mb - 0.00 in0.0 mm 0.03 in0.8 mm
07:00 AM 53.6°F12.0°C 49.2°F9.6°C 85% 16.1 mph WSW25.9 kmh WSW 34.5 mph55.5 kmh 29.06 in984.1 mb - 0.00 in0.0 mm 0.03 in0.8 mm
06:50 AM 53.7°F12.1°C 49.0°F9.4°C 84% 18.4 mph W29.6 kmh W 28.8 mph46.3 kmh 29.06 in984.1 mb - 0.00 in0.0 mm 0.03 in0.8 mm
06:40 AM 53.8°F12.1°C 49.1°F9.5°C 84% 20.7 mph W33.3 kmh W 29.9 mph48.1 kmh 29.06 in984.1 mb - 0.00 in0.0 mm 0.03 in0.8 mm
06:30 AM 54.0°F12.2°C 49.3°F9.6°C 84% 16.1 mph W25.9 kmh W 27.6 mph44.4 kmh 29.07 in984.4 mb - 0.00 in0.0 mm 0.03 in0.8 mm
06:20 AM 54.1°F12.3°C 49.4°F9.7°C 84% 12.7 mph NW20.4 kmh NW 21.9 mph35.2 kmh 29.07 in984.4 mb - 0.00 in0.0 mm 0.03 in0.8 mm
06:10 AM 54.1°F12.3°C 49.4°F9.7°C 84% 16.1 mph WNW25.9 kmh WNW 27.6 mph44.4 kmh 29.07 in984.4 mb - 0.00 in0.0 mm 0.03 in0.8 mm
06:00 AM 54.3°F12.4°C 49.9°F9.9°C 85% 17.3 mph WNW27.8 kmh WNW 28.8 mph46.3 kmh 29.07 in984.4 mb - 0.00 in0.0 mm 0.03 in0.8 mm
05:50 AM 54.4°F12.4°C 50.0°F10.0°C 85% 13.8 mph W22.2 kmh W 25.3 mph40.7 kmh 29.07 in984.4 mb - 0.00 in0.0 mm 0.03 in0.8 mm
05:40 AM 54.6°F12.6°C 50.2°F10.1°C 85% 13.8 mph WSW22.2 kmh WSW 23.0 mph37.0 kmh 29.07 in984.4 mb - 0.00 in0.0 mm 0.03 in0.8 mm
05:30 AM 54.6°F12.6°C 50.2°F10.1°C 85% 17.3 mph W27.8 kmh W 26.5 mph42.6 kmh 29.07 in984.4 mb - 0.00 in0.0 mm 0.03 in0.8 mm
05:20 AM 54.6°F12.6°C 50.5°F10.3°C 86% 12.7 mph W20.4 kmh W 21.9 mph35.2 kmh 29.07 in984.4 mb - 0.00 in0.0 mm 0.03 in0.8 mm
05:10 AM 54.6°F12.6°C 50.5°F10.3°C 86% 13.8 mph W22.2 kmh W 25.3 mph40.7 kmh 29.07 in984.4 mb - 0.00 in0.0 mm 0.03 in0.8 mm
05:00 AM 54.5°F12.5°C 50.8°F10.4°C 87% 12.7 mph WSW20.4 kmh WSW 23.0 mph37.0 kmh 29.07 in984.4 mb - 0.00 in0.0 mm 0.03 in0.8 mm
04:50 AM 54.6°F12.6°C 50.8°F10.4°C 87% 10.4 mph NW16.7 kmh NW 20.7 mph33.3 kmh 29.07 in984.4 mb - 0.00 in0.0 mm 0.03 in0.8 mm
04:40 AM 54.6°F12.6°C 50.8°F10.4°C 87% 15.0 mph WSW24.1 kmh WSW 25.3 mph40.7 kmh 29.07 in984.4 mb - 0.00 in0.0 mm 0.03 in0.8 mm
04:30 AM 54.7°F12.6°C 50.6°F10.3°C 86% 11.5 mph W18.5 kmh W 20.7 mph33.3 kmh 29.07 in984.4 mb - 0.00 in0.0 mm 0.03 in0.8 mm
04:20 AM 54.6°F12.6°C 50.5°F10.3°C 86% 15.0 mph WSW24.1 kmh WSW 26.5 mph42.6 kmh 29.07 in984.4 mb - 0.00 in0.0 mm 0.03 in0.8 mm
04:10 AM 54.3°F12.4°C 50.5°F10.3°C 87% 13.8 mph NW22.2 kmh NW 19.6 mph31.5 kmh 29.07 in984.4 mb - 0.00 in0.0 mm 0.03 in0.8 mm
04:00 AM 54.0°F12.2°C 50.2°F10.1°C 87% 17.3 mph W27.8 kmh W 27.6 mph44.4 kmh 29.08 in984.8 mb - 0.00 in0.0 mm 0.03 in0.8 mm
03:50 AM 54.0°F12.2°C 50.2°F10.1°C 87% 17.3 mph SW27.8 kmh SW 23.0 mph37.0 kmh 29.08 in984.8 mb - 0.00 in0.0 mm 0.03 in0.8 mm
03:40 AM 54.0°F12.2°C 50.2°F10.1°C 87% 16.1 mph SW25.9 kmh SW 25.3 mph40.7 kmh 29.08 in984.8 mb - 0.00 in0.0 mm 0.03 in0.8 mm
03:30 AM 54.0°F12.2°C 50.2°F10.1°C 87% 13.8 mph NW22.2 kmh NW 21.9 mph35.2 kmh 29.09 in985.1 mb - 0.00 in0.0 mm 0.03 in0.8 mm
03:20 AM 54.2°F12.3°C 50.1°F10.1°C 86% 17.3 mph W27.8 kmh W 28.8 mph46.3 kmh 29.09 in985.1 mb - 0.00 in0.0 mm 0.03 in0.8 mm
03:10 AM 54.2°F12.3°C 50.1°F10.1°C 86% 10.4 mph SW16.7 kmh SW 18.4 mph29.6 kmh 29.10 in985.4 mb - 0.01 in0.3 mm 0.03 in0.8 mm
03:00 AM 54.3°F12.4°C 50.2°F10.1°C 86% 16.1 mph WSW25.9 kmh WSW 21.9 mph35.2 kmh 29.11 in985.8 mb - 0.00 in0.0 mm 0.02 in0.5 mm
02:50 AM 54.3°F12.4°C 49.9°F9.9°C 85% 11.5 mph SSW18.5 kmh SSW 19.6 mph31.5 kmh 29.11 in985.8 mb - 0.00 in0.0 mm 0.02 in0.5 mm
02:40 AM 54.4°F12.4°C 50.0°F10.0°C 85% 18.4 mph SW29.6 kmh SW 28.8 mph46.3 kmh 29.11 in985.8 mb - 0.00 in0.0 mm 0.02 in0.5 mm
02:30 AM 54.2°F12.3°C 50.1°F10.1°C 86% 13.8 mph SW22.2 kmh SW 25.3 mph40.7 kmh 29.12 in986.1 mb - 0.01 in0.3 mm 0.02 in0.5 mm
02:20 AM 54.1°F12.3°C 49.7°F9.8°C 85% 16.1 mph WSW25.9 kmh WSW 25.3 mph40.7 kmh 29.12 in986.1 mb - 0.00 in0.0 mm 0.01 in0.3 mm
02:10 AM 54.5°F12.5°C 49.7°F9.8°C 84% 20.7 mph SW33.3 kmh SW 29.9 mph48.1 kmh 29.12 in986.1 mb - 0.00 in0.0 mm 0.01 in0.3 mm
02:00 AM 54.7°F12.6°C 50.0°F10.0°C 84% 16.1 mph SW25.9 kmh SW 32.2 mph51.8 kmh 29.12 in986.1 mb - 0.00 in0.0 mm 0.01 in0.3 mm
01:50 AM 54.6°F12.6°C 49.9°F9.9°C 84% 13.8 mph SW22.2 kmh SW 21.9 mph35.2 kmh 29.13 in986.5 mb - 0.00 in0.0 mm 0.01 in0.3 mm
01:40 AM 54.5°F12.5°C 49.8°F9.9°C 84% 18.4 mph SW29.6 kmh SW 28.8 mph46.3 kmh 29.14 in986.8 mb - 0.00 in0.0 mm 0.01 in0.3 mm
01:30 AM 54.3°F12.4°C 49.6°F9.8°C 84% 16.1 mph WSW25.9 kmh WSW 25.3 mph40.7 kmh 29.13 in986.5 mb - 0.00 in0.0 mm 0.01 in0.3 mm
01:20 AM 54.2°F12.3°C 49.7°F9.8°C 85% 13.8 mph SW22.2 kmh SW 21.9 mph35.2 kmh 29.13 in986.5 mb - 0.00 in0.0 mm 0.01 in0.3 mm
01:10 AM 54.2°F12.3°C 49.8°F9.9°C 85% 21.9 mph SW35.2 kmh SW 33.4 mph53.8 kmh 29.14 in986.8 mb - 0.00 in0.0 mm 0.01 in0.3 mm
01:00 AM 54.4°F12.4°C 49.7°F9.8°C 84% 16.1 mph WSW25.9 kmh WSW 26.5 mph42.6 kmh 29.15 in987.1 mb - 0.00 in0.0 mm 0.01 in0.3 mm
12:50 AM 55.0°F12.8°C 49.6°F9.8°C 82% 19.6 mph SW31.5 kmh SW 27.6 mph44.4 kmh 29.16 in987.5 mb - 0.00 in0.0 mm 0.01 in0.3 mm
12:40 AM 55.1°F12.8°C 49.4°F9.7°C 81% 21.9 mph SW35.2 kmh SW 29.9 mph48.1 kmh 29.16 in987.5 mb - 0.00 in0.0 mm 0.01 in0.3 mm
12:30 AM 55.2°F12.9°C 49.5°F9.7°C 81% 21.9 mph SW35.2 kmh SW 33.4 mph53.8 kmh 29.17 in987.8 mb - 0.00 in0.0 mm 0.01 in0.3 mm
12:20 AM 55.1°F12.8°C 49.4°F9.7°C 81% 24.2 mph SSW38.9 kmh SSW 34.5 mph55.5 kmh 29.18 in988.1 mb - 0.00 in0.0 mm 0.01 in0.3 mm
12:10 AM 55.3°F12.9°C 49.6°F9.8°C 81% 20.7 mph SW33.3 kmh SW 32.2 mph51.8 kmh 29.18 in988.1 mb - 0.01 in0.3 mm 0.01 in0.3 mm
12:00 AM 55.5°F13.1°C 49.4°F9.7°C 80% 18.4 mph SW29.6 kmh SW 28.8 mph46.3 kmh 29.19 in988.5 mb - 0.00 in0.0 mm 0.00 in0.0 mm